sensor_id;sensor_type;location;lat;lon;timestamp;P1;durP1;ratioP1;P2;durP2;ratioP2
74512;SDS011;62992;52.052;8.550;2023-04-09T00:01:59;37.03;;;18.33;;
74512;SDS011;62992;52.052;8.550;2023-04-09T00:04:44;38.67;;;18.42;;
74512;SDS011;62992;52.052;8.550;2023-04-09T00:07:28;38.92;;;18.52;;
74512;SDS011;62992;52.052;8.550;2023-04-09T00:10:12;40.40;;;18.23;;
74512;SDS011;62992;52.052;8.550;2023-04-09T00:12:56;42.50;;;19.45;;
74512;SDS011;62992;52.052;8.550;2023-04-09T00:15:40;40.95;;;18.35;;
74512;SDS011;62992;52.052;8.550;2023-04-09T00:18:24;38.40;;;17.75;;
74512;SDS011;62992;52.052;8.550;2023-04-09T00:21:09;39.33;;;18.52;;
74512;SDS011;62992;52.052;8.550;2023-04-09T00:23:53;34.53;;;17.40;;
74512;SDS011;62992;52.052;8.550;2023-04-09T00:26:38;35.85;;;17.48;;
74512;SDS011;62992;52.052;8.550;2023-04-09T00:29:22;39.92;;;18.35;;
74512;SDS011;62992;52.052;8.550;2023-04-09T00:32:06;37.10;;;17.92;;
74512;SDS011;62992;52.052;8.550;2023-04-09T00:34:50;35.72;;;18.27;;
74512;SDS011;62992;52.052;8.550;2023-04-09T00:37:34;37.85;;;18.30;;
74512;SDS011;62992;52.052;8.550;2023-04-09T00:40:18;36.92;;;17.25;;
74512;SDS011;62992;52.052;8.550;2023-04-09T00:43:02;38.63;;;18.55;;
74512;SDS011;62992;52.052;8.550;2023-04-09T00:45:46;40.20;;;18.88;;
74512;SDS011;62992;52.052;8.550;2023-04-09T00:48:30;36.38;;;18.52;;
74512;SDS011;62992;52.052;8.550;2023-04-09T00:51:14;33.75;;;16.80;;
74512;SDS011;62992;52.052;8.550;2023-04-09T00:53:59;39.70;;;18.88;;
74512;SDS011;62992;52.052;8.550;2023-04-09T00:56:43;39.92;;;18.92;;
74512;SDS011;62992;52.052;8.550;2023-04-09T00:59:28;43.63;;;19.58;;
74512;SDS011;62992;52.052;8.550;2023-04-09T01:02:12;37.83;;;18.23;;
74512;SDS011;62992;52.052;8.550;2023-04-09T01:04:56;44.45;;;18.15;;
74512;SDS011;62992;52.052;8.550;2023-04-09T01:17:14;41.10;;;18.58;;
74512;SDS011;62992;52.052;8.550;2023-04-09T01:20:04;36.95;;;18.08;;
74512;SDS011;62992;52.052;8.550;2023-04-09T01:26:03;40.72;;;19.50;;
74512;SDS011;62992;52.052;8.550;2023-04-09T01:28:53;42.40;;;18.65;;
74512;SDS011;62992;52.052;8.550;2023-04-09T01:31:39;43.95;;;19.85;;
74512;SDS011;62992;52.052;8.550;2023-04-09T01:34:26;37.10;;;18.35;;
74512;SDS011;62992;52.052;8.550;2023-04-09T01:37:11;39.25;;;19.35;;
74512;SDS011;62992;52.052;8.550;2023-04-09T01:39:58;40.78;;;19.40;;
74512;SDS011;62992;52.052;8.550;2023-04-09T01:42:42;36.92;;;19.63;;
74512;SDS011;62992;52.052;8.550;2023-04-09T01:45:28;36.53;;;18.58;;
74512;SDS011;62992;52.052;8.550;2023-04-09T01:48:12;37.80;;;18.35;;
74512;SDS011;62992;52.052;8.550;2023-04-09T01:50:57;40.30;;;18.85;;
74512;SDS011;62992;52.052;8.550;2023-04-09T01:53:42;37.42;;;18.63;;
74512;SDS011;62992;52.052;8.550;2023-04-09T01:56:26;41.75;;;19.80;;
74512;SDS011;62992;52.052;8.550;2023-04-09T01:59:10;42.22;;;19.88;;
74512;SDS011;62992;52.052;8.550;2023-04-09T02:02:05;39.72;;;19.30;;
74512;SDS011;62992;52.052;8.550;2023-04-09T02:04:58;41.22;;;19.90;;
74512;SDS011;62992;52.052;8.550;2023-04-09T02:07:46;42.13;;;19.90;;
74512;SDS011;62992;52.052;8.550;2023-04-09T02:10:37;39.35;;;19.33;;
74512;SDS011;62992;52.052;8.550;2023-04-09T02:13:23;49.20;;;20.98;;
74512;SDS011;62992;52.052;8.550;2023-04-09T02:16:09;40.85;;;19.80;;
74512;SDS011;62992;52.052;8.550;2023-04-09T02:18:56;45.58;;;20.55;;
74512;SDS011;62992;52.052;8.550;2023-04-09T02:21:43;45.60;;;23.15;;
74512;SDS011;62992;52.052;8.550;2023-04-09T02:24:28;41.33;;;20.52;;
74512;SDS011;62992;52.052;8.550;2023-04-09T02:27:13;43.88;;;21.00;;
74512;SDS011;62992;52.052;8.550;2023-04-09T02:29:57;44.78;;;21.27;;
74512;SDS011;62992;52.052;8.550;2023-04-09T02:32:41;46.15;;;19.92;;
74512;SDS011;62992;52.052;8.550;2023-04-09T02:35:25;46.60;;;20.35;;
74512;SDS011;62992;52.052;8.550;2023-04-09T02:38:09;47.80;;;21.17;;
74512;SDS011;62992;52.052;8.550;2023-04-09T02:40:56;48.33;;;22.63;;
74512;SDS011;62992;52.052;8.550;2023-04-09T02:43:40;40.25;;;20.30;;
74512;SDS011;62992;52.052;8.550;2023-04-09T02:46:24;39.97;;;19.33;;
74512;SDS011;62992;52.052;8.550;2023-04-09T02:49:08;45.13;;;20.17;;
74512;SDS011;62992;52.052;8.550;2023-04-09T02:51:53;45.53;;;20.33;;
74512;SDS011;62992;52.052;8.550;2023-04-09T02:54:37;41.10;;;20.42;;
74512;SDS011;62992;52.052;8.550;2023-04-09T02:57:21;45.55;;;19.83;;
74512;SDS011;62992;52.052;8.550;2023-04-09T03:00:05;42.28;;;18.90;;
74512;SDS011;62992;52.052;8.550;2023-04-09T03:02:50;41.38;;;18.60;;
74512;SDS011;62992;52.052;8.550;2023-04-09T03:05:34;40.70;;;19.10;;
74512;SDS011;62992;52.052;8.550;2023-04-09T03:08:19;41.72;;;18.70;;
74512;SDS011;62992;52.052;8.550;2023-04-09T03:11:03;33.58;;;17.13;;
74512;SDS011;62992;52.052;8.550;2023-04-09T03:13:48;38.20;;;17.35;;
74512;SDS011;62992;52.052;8.550;2023-04-09T03:16:31;34.35;;;17.23;;
74512;SDS011;62992;52.052;8.550;2023-04-09T03:19:16;33.00;;;17.33;;
74512;SDS011;62992;52.052;8.550;2023-04-09T03:22:00;35.50;;;17.65;;
74512;SDS011;62992;52.052;8.550;2023-04-09T03:24:44;38.63;;;17.63;;
74512;SDS011;62992;52.052;8.550;2023-04-09T03:27:28;34.72;;;16.75;;
74512;SDS011;62992;52.052;8.550;2023-04-09T03:30:12;34.88;;;16.77;;
74512;SDS011;62992;52.052;8.550;2023-04-09T03:32:56;35.38;;;16.00;;
74512;SDS011;62992;52.052;8.550;2023-04-09T03:35:42;37.25;;;17.33;;
74512;SDS011;62992;52.052;8.550;2023-04-09T03:38:25;36.67;;;16.65;;
74512;SDS011;62992;52.052;8.550;2023-04-09T03:41:09;40.33;;;16.85;;
74512;SDS011;62992;52.052;8.550;2023-04-09T03:43:53;38.22;;;17.80;;
74512;SDS011;62992;52.052;8.550;2023-04-09T03:46:38;43.35;;;19.02;;
74512;SDS011;62992;52.052;8.550;2023-04-09T03:49:22;42.90;;;19.20;;
74512;SDS011;62992;52.052;8.550;2023-04-09T03:52:06;40.67;;;18.55;;
74512;SDS011;62992;52.052;8.550;2023-04-09T03:54:50;44.58;;;20.45;;
74512;SDS011;62992;52.052;8.550;2023-04-09T03:57:34;41.15;;;18.80;;
74512;SDS011;62992;52.052;8.550;2023-04-09T04:00:18;43.72;;;19.63;;
74512;SDS011;62992;52.052;8.550;2023-04-09T04:03:02;42.80;;;18.75;;
74512;SDS011;62992;52.052;8.550;2023-04-09T04:05:46;39.55;;;18.13;;
74512;SDS011;62992;52.052;8.550;2023-04-09T04:08:30;37.35;;;18.02;;
74512;SDS011;62992;52.052;8.550;2023-04-09T04:11:14;41.50;;;18.77;;
74512;SDS011;62992;52.052;8.550;2023-04-09T04:13:58;47.58;;;21.58;;
74512;SDS011;62992;52.052;8.550;2023-04-09T04:16:42;58.60;;;22.13;;
74512;SDS011;62992;52.052;8.550;2023-04-09T04:19:26;68.05;;;22.35;;
74512;SDS011;62992;52.052;8.550;2023-04-09T04:22:10;63.45;;;24.77;;
74512;SDS011;62992;52.052;8.550;2023-04-09T04:24:54;65.30;;;25.40;;
74512;SDS011;62992;52.052;8.550;2023-04-09T04:27:41;86.18;;;25.83;;
74512;SDS011;62992;52.052;8.550;2023-04-09T04:30:26;83.90;;;27.08;;
74512;SDS011;62992;52.052;8.550;2023-04-09T04:33:10;83.03;;;25.52;;
74512;SDS011;62992;52.052;8.550;2023-04-09T04:36:02;109.07;;;28.23;;
74512;SDS011;62992;52.052;8.550;2023-04-09T04:38:48;113.90;;;27.52;;
74512;SDS011;62992;52.052;8.550;2023-04-09T04:41:33;75.07;;;26.90;;
74512;SDS011;62992;52.052;8.550;2023-04-09T04:44:17;84.40;;;27.75;;
74512;SDS011;62992;52.052;8.550;2023-04-09T04:47:01;77.93;;;25.38;;
74512;SDS011;62992;52.052;8.550;2023-04-09T04:49:45;87.03;;;26.88;;
74512;SDS011;62992;52.052;8.550;2023-04-09T04:52:29;99.97;;;26.45;;
74512;SDS011;62992;52.052;8.550;2023-04-09T04:55:13;99.72;;;26.48;;
74512;SDS011;62992;52.052;8.550;2023-04-09T04:57:57;108.25;;;26.58;;
74512;SDS011;62992;52.052;8.550;2023-04-09T05:00:41;74.10;;;22.98;;
74512;SDS011;62992;52.052;8.550;2023-04-09T05:03:25;85.40;;;25.80;;
74512;SDS011;62992;52.052;8.550;2023-04-09T05:06:09;77.00;;;27.15;;
74512;SDS011;62992;52.052;8.550;2023-04-09T05:08:53;86.07;;;24.80;;
74512;SDS011;62992;52.052;8.550;2023-04-09T05:11:40;96.30;;;26.10;;
74512;SDS011;62992;52.052;8.550;2023-04-09T05:14:24;128.27;;;27.38;;
74512;SDS011;62992;52.052;8.550;2023-04-09T05:17:09;91.50;;;26.27;;
74512;SDS011;62992;52.052;8.550;2023-04-09T05:19:53;106.47;;;27.85;;
74512;SDS011;62992;52.052;8.550;2023-04-09T05:22:37;115.95;;;29.65;;
74512;SDS011;62992;52.052;8.550;2023-04-09T05:25:21;132.55;;;28.23;;
74512;SDS011;62992;52.052;8.550;2023-04-09T05:28:05;96.18;;;23.80;;
74512;SDS011;62992;52.052;8.550;2023-04-09T05:30:49;104.70;;;27.15;;
74512;SDS011;62992;52.052;8.550;2023-04-09T05:33:33;104.40;;;25.45;;
74512;SDS011;62992;52.052;8.550;2023-04-09T05:36:20;99.43;;;27.85;;
74512;SDS011;62992;52.052;8.550;2023-04-09T05:39:04;99.70;;;27.95;;
74512;SDS011;62992;52.052;8.550;2023-04-09T05:41:48;73.15;;;26.45;;
74512;SDS011;62992;52.052;8.550;2023-04-09T05:44:33;101.13;;;25.30;;
74512;SDS011;62992;52.052;8.550;2023-04-09T05:47:17;96.20;;;27.73;;
74512;SDS011;62992;52.052;8.550;2023-04-09T05:50:01;96.85;;;28.85;;
74512;SDS011;62992;52.052;8.550;2023-04-09T05:52:45;92.90;;;27.98;;
74512;SDS011;62992;52.052;8.550;2023-04-09T05:55:30;97.38;;;26.00;;
74512;SDS011;62992;52.052;8.550;2023-04-09T05:58:16;98.30;;;28.63;;
74512;SDS011;62992;52.052;8.550;2023-04-09T06:01:01;105.05;;;26.05;;
74512;SDS011;62992;52.052;8.550;2023-04-09T06:03:45;106.63;;;29.08;;
74512;SDS011;62992;52.052;8.550;2023-04-09T06:06:29;75.57;;;27.45;;
74512;SDS011;62992;52.052;8.550;2023-04-09T06:09:13;73.32;;;25.77;;
74512;SDS011;62992;52.052;8.550;2023-04-09T06:11:57;85.40;;;26.67;;
74512;SDS011;62992;52.052;8.550;2023-04-09T06:14:41;122.68;;;27.48;;
74512;SDS011;62992;52.052;8.550;2023-04-09T06:17:25;102.50;;;28.48;;
74512;SDS011;62992;52.052;8.550;2023-04-09T06:20:11;89.43;;;27.88;;
74512;SDS011;62992;52.052;8.550;2023-04-09T06:22:55;84.88;;;26.67;;
74512;SDS011;62992;52.052;8.550;2023-04-09T06:25:39;156.95;;;30.23;;
74512;SDS011;62992;52.052;8.550;2023-04-09T06:28:23;100.32;;;27.13;;
74512;SDS011;62992;52.052;8.550;2023-04-09T06:31:08;89.60;;;25.65;;
74512;SDS011;62992;52.052;8.550;2023-04-09T06:33:53;91.70;;;26.63;;
74512;SDS011;62992;52.052;8.550;2023-04-09T06:36:37;78.13;;;26.25;;
74512;SDS011;62992;52.052;8.550;2023-04-09T06:39:22;79.03;;;27.52;;
74512;SDS011;62992;52.052;8.550;2023-04-09T06:42:06;78.38;;;29.40;;
74512;SDS011;62992;52.052;8.550;2023-04-09T06:44:50;84.82;;;26.77;;
74512;SDS011;62992;52.052;8.550;2023-04-09T06:47:34;66.68;;;27.58;;
74512;SDS011;62992;52.052;8.550;2023-04-09T06:50:18;67.93;;;25.45;;
74512;SDS011;62992;52.052;8.550;2023-04-09T06:53:04;65.40;;;27.60;;
74512;SDS011;62992;52.052;8.550;2023-04-09T06:55:49;63.78;;;25.77;;
74512;SDS011;62992;52.052;8.550;2023-04-09T06:58:34;56.97;;;25.75;;
74512;SDS011;62992;52.052;8.550;2023-04-09T07:01:18;52.05;;;23.23;;
74512;SDS011;62992;52.052;8.550;2023-04-09T07:04:03;57.38;;;25.38;;
74512;SDS011;62992;52.052;8.550;2023-04-09T07:06:48;61.15;;;26.38;;
74512;SDS011;62992;52.052;8.550;2023-04-09T07:09:32;63.53;;;24.23;;
74512;SDS011;62992;52.052;8.550;2023-04-09T07:12:29;51.55;;;23.67;;
74512;SDS011;62992;52.052;8.550;2023-04-09T07:15:14;52.45;;;24.50;;
74512;SDS011;62992;52.052;8.550;2023-04-09T07:17:58;52.63;;;24.50;;
74512;SDS011;62992;52.052;8.550;2023-04-09T07:20:42;48.97;;;23.25;;
74512;SDS011;62992;52.052;8.550;2023-04-09T07:23:26;50.55;;;23.20;;
74512;SDS011;62992;52.052;8.550;2023-04-09T07:26:10;49.78;;;23.60;;
74512;SDS011;62992;52.052;8.550;2023-04-09T07:28:54;45.55;;;21.20;;
74512;SDS011;62992;52.052;8.550;2023-04-09T07:31:38;56.40;;;22.38;;
74512;SDS011;62992;52.052;8.550;2023-04-09T07:34:23;51.22;;;23.17;;
74512;SDS011;62992;52.052;8.550;2023-04-09T07:37:06;50.03;;;23.23;;
74512;SDS011;62992;52.052;8.550;2023-04-09T07:39:50;50.70;;;23.55;;
74512;SDS011;62992;52.052;8.550;2023-04-09T07:42:38;49.15;;;24.02;;
74512;SDS011;62992;52.052;8.550;2023-04-09T07:45:22;49.33;;;23.63;;
74512;SDS011;62992;52.052;8.550;2023-04-09T07:48:06;46.40;;;21.83;;
74512;SDS011;62992;52.052;8.550;2023-04-09T07:50:51;46.92;;;22.58;;
74512;SDS011;62992;52.052;8.550;2023-04-09T07:53:35;42.25;;;22.90;;
74512;SDS011;62992;52.052;8.550;2023-04-09T07:56:19;47.67;;;23.35;;
74512;SDS011;62992;52.052;8.550;2023-04-09T07:59:03;45.33;;;21.65;;
74512;SDS011;62992;52.052;8.550;2023-04-09T08:01:48;47.25;;;21.45;;
74512;SDS011;62992;52.052;8.550;2023-04-09T08:04:32;42.28;;;21.60;;
74512;SDS011;62992;52.052;8.550;2023-04-09T08:07:16;44.78;;;21.27;;
74512;SDS011;62992;52.052;8.550;2023-04-09T08:10:00;39.30;;;21.17;;
74512;SDS011;62992;52.052;8.550;2023-04-09T08:12:46;44.15;;;22.17;;
74512;SDS011;62992;52.052;8.550;2023-04-09T08:15:30;37.42;;;19.73;;
74512;SDS011;62992;52.052;8.550;2023-04-09T08:18:15;40.90;;;20.92;;
74512;SDS011;62992;52.052;8.550;2023-04-09T08:21:02;38.90;;;20.23;;
74512;SDS011;62992;52.052;8.550;2023-04-09T08:23:47;39.85;;;20.77;;
74512;SDS011;62992;52.052;8.550;2023-04-09T08:26:31;40.60;;;20.95;;
74512;SDS011;62992;52.052;8.550;2023-04-09T08:29:15;39.65;;;21.08;;
74512;SDS011;62992;52.052;8.550;2023-04-09T08:31:59;40.40;;;20.60;;
74512;SDS011;62992;52.052;8.550;2023-04-09T08:34:43;39.60;;;20.70;;
74512;SDS011;62992;52.052;8.550;2023-04-09T08:37:28;40.70;;;21.35;;
74512;SDS011;62992;52.052;8.550;2023-04-09T08:40:12;38.35;;;21.17;;
74512;SDS011;62992;52.052;8.550;2023-04-09T08:42:56;34.65;;;18.60;;
74512;SDS011;62992;52.052;8.550;2023-04-09T08:45:41;32.72;;;18.52;;
74512;SDS011;62992;52.052;8.550;2023-04-09T08:48:26;30.75;;;19.10;;
74512;SDS011;62992;52.052;8.550;2023-04-09T08:51:21;29.90;;;18.33;;
74512;SDS011;62992;52.052;8.550;2023-04-09T08:54:06;29.90;;;18.75;;
74512;SDS011;62992;52.052;8.550;2023-04-09T08:56:50;28.98;;;20.13;;
74512;SDS011;62992;52.052;8.550;2023-04-09T08:59:34;26.50;;;19.00;;
74512;SDS011;62992;52.052;8.550;2023-04-09T09:02:19;28.15;;;19.80;;
74512;SDS011;62992;52.052;8.550;2023-04-09T09:05:04;27.67;;;19.42;;
74512;SDS011;62992;52.052;8.550;2023-04-09T09:07:52;27.00;;;20.13;;
74512;SDS011;62992;52.052;8.550;2023-04-09T09:10:41;26.80;;;19.73;;
74512;SDS011;62992;52.052;8.550;2023-04-09T09:13:26;26.85;;;21.30;;
74512;SDS011;62992;52.052;8.550;2023-04-09T09:16:11;27.05;;;20.35;;
74512;SDS011;62992;52.052;8.550;2023-04-09T09:18:57;26.85;;;19.70;;
74512;SDS011;62992;52.052;8.550;2023-04-09T09:21:42;26.10;;;21.02;;
74512;SDS011;62992;52.052;8.550;2023-04-09T09:24:49;24.70;;;19.02;;
74512;SDS011;62992;52.052;8.550;2023-04-09T09:27:35;24.25;;;19.42;;
74512;SDS011;62992;52.052;8.550;2023-04-09T09:30:25;23.25;;;19.33;;
74512;SDS011;62992;52.052;8.550;2023-04-09T09:33:10;24.77;;;19.05;;
74512;SDS011;62992;52.052;8.550;2023-04-09T09:35:55;22.95;;;19.30;;
74512;SDS011;62992;52.052;8.550;2023-04-09T09:38:50;22.70;;;18.70;;
74512;SDS011;62992;52.052;8.550;2023-04-09T09:41:37;22.92;;;19.17;;
74512;SDS011;62992;52.052;8.550;2023-04-09T09:44:29;22.42;;;19.30;;
74512;SDS011;62992;52.052;8.550;2023-04-09T09:47:14;20.33;;;18.08;;
74512;SDS011;62992;52.052;8.550;2023-04-09T09:50:00;21.27;;;18.58;;
74512;SDS011;62992;52.052;8.550;2023-04-09T09:55:41;19.98;;;16.95;;
74512;SDS011;62992;52.052;8.550;2023-04-09T09:58:31;20.42;;;17.15;;
74512;SDS011;62992;52.052;8.550;2023-04-09T10:01:19;20.15;;;16.85;;
74512;SDS011;62992;52.052;8.550;2023-04-09T10:04:06;19.27;;;16.77;;
74512;SDS011;62992;52.052;8.550;2023-04-09T10:06:56;19.40;;;16.58;;
74512;SDS011;62992;52.052;8.550;2023-04-09T10:09:46;18.52;;;16.15;;
74512;SDS011;62992;52.052;8.550;2023-04-09T10:12:32;18.30;;;16.02;;
74512;SDS011;62992;52.052;8.550;2023-04-09T10:15:20;17.08;;;14.38;;
74512;SDS011;62992;52.052;8.550;2023-04-09T10:18:04;17.33;;;13.85;;
74512;SDS011;62992;52.052;8.550;2023-04-09T10:20:49;17.70;;;14.23;;
74512;SDS011;62992;52.052;8.550;2023-04-09T10:23:38;17.00;;;14.20;;
74512;SDS011;62992;52.052;8.550;2023-04-09T10:26:24;16.63;;;14.05;;
74512;SDS011;62992;52.052;8.550;2023-04-09T10:29:14;17.08;;;14.57;;
74512;SDS011;62992;52.052;8.550;2023-04-09T10:32:02;16.48;;;13.50;;
74512;SDS011;62992;52.052;8.550;2023-04-09T10:34:48;16.70;;;12.43;;
74512;SDS011;62992;52.052;8.550;2023-04-09T10:37:33;14.95;;;11.32;;
74512;SDS011;62992;52.052;8.550;2023-04-09T10:40:18;13.98;;;10.45;;
74512;SDS011;62992;52.052;8.550;2023-04-09T10:43:04;13.52;;;10.13;;
74512;SDS011;62992;52.052;8.550;2023-04-09T10:45:49;14.17;;;10.57;;
74512;SDS011;62992;52.052;8.550;2023-04-09T10:48:36;13.35;;;9.45;;
74512;SDS011;62992;52.052;8.550;2023-04-09T10:51:19;14.93;;;10.57;;
74512;SDS011;62992;52.052;8.550;2023-04-09T10:54:49;14.43;;;9.55;;
74512;SDS011;62992;52.052;8.550;2023-04-09T10:57:18;14.75;;;9.25;;
74512;SDS011;62992;52.052;8.550;2023-04-09T11:00:04;14.23;;;9.52;;
74512;SDS011;62992;52.052;8.550;2023-04-09T11:05:42;16.05;;;10.02;;
74512;SDS011;62992;52.052;8.550;2023-04-09T11:09:01;13.93;;;8.82;;
74512;SDS011;62992;52.052;8.550;2023-04-09T11:11:53;13.00;;;8.70;;
74512;SDS011;62992;52.052;8.550;2023-04-09T11:14:37;11.75;;;8.23;;
74512;SDS011;62992;52.052;8.550;2023-04-09T11:17:21;15.52;;;9.13;;
74512;SDS011;62992;52.052;8.550;2023-04-09T11:20:05;13.30;;;8.27;;
74512;SDS011;62992;52.052;8.550;2023-04-09T11:22:50;14.88;;;8.93;;
74512;SDS011;62992;52.052;8.550;2023-04-09T11:25:36;14.50;;;8.55;;
74512;SDS011;62992;52.052;8.550;2023-04-09T11:28:21;13.95;;;10.10;;
74512;SDS011;62992;52.052;8.550;2023-04-09T11:31:06;14.38;;;8.18;;
74512;SDS011;62992;52.052;8.550;2023-04-09T11:33:50;14.35;;;8.63;;
74512;SDS011;62992;52.052;8.550;2023-04-09T11:36:34;11.43;;;7.60;;
74512;SDS011;62992;52.052;8.550;2023-04-09T11:39:18;14.20;;;8.07;;
74512;SDS011;62992;52.052;8.550;2023-04-09T11:42:02;12.18;;;8.40;;
74512;SDS011;62992;52.052;8.550;2023-04-09T11:44:47;13.38;;;8.15;;
74512;SDS011;62992;52.052;8.550;2023-04-09T11:50:17;12.25;;;7.80;;
74512;SDS011;62992;52.052;8.550;2023-04-09T11:53:14;13.57;;;7.60;;
74512;SDS011;62992;52.052;8.550;2023-04-09T11:56:01;11.00;;;7.13;;
74512;SDS011;62992;52.052;8.550;2023-04-09T11:58:46;12.27;;;7.53;;
74512;SDS011;62992;52.052;8.550;2023-04-09T12:01:31;12.93;;;7.80;;
74512;SDS011;62992;52.052;8.550;2023-04-09T12:04:19;11.93;;;7.30;;
74512;SDS011;62992;52.052;8.550;2023-04-09T12:07:07;12.63;;;7.68;;
74512;SDS011;62992;52.052;8.550;2023-04-09T12:09:52;14.20;;;7.50;;
74512;SDS011;62992;52.052;8.550;2023-04-09T12:12:43;13.93;;;7.72;;
74512;SDS011;62992;52.052;8.550;2023-04-09T12:15:36;11.93;;;7.40;;
74512;SDS011;62992;52.052;8.550;2023-04-09T12:18:21;13.00;;;9.05;;
74512;SDS011;62992;52.052;8.550;2023-04-09T12:21:05;13.35;;;8.23;;
74512;SDS011;62992;52.052;8.550;2023-04-09T12:23:49;13.13;;;7.78;;
74512;SDS011;62992;52.052;8.550;2023-04-09T12:26:33;12.70;;;7.68;;
74512;SDS011;62992;52.052;8.550;2023-04-09T12:29:19;14.48;;;7.95;;
74512;SDS011;62992;52.052;8.550;2023-04-09T12:32:04;14.90;;;8.88;;
74512;SDS011;62992;52.052;8.550;2023-04-09T12:34:48;13.95;;;7.85;;
74512;SDS011;62992;52.052;8.550;2023-04-09T12:37:32;13.77;;;8.32;;
74512;SDS011;62992;52.052;8.550;2023-04-09T12:40:18;13.93;;;8.00;;
74512;SDS011;62992;52.052;8.550;2023-04-09T12:43:03;11.82;;;7.63;;
74512;SDS011;62992;52.052;8.550;2023-04-09T12:45:48;13.77;;;8.50;;
74512;SDS011;62992;52.052;8.550;2023-04-09T12:48:32;11.15;;;7.18;;
74512;SDS011;62992;52.052;8.550;2023-04-09T12:51:16;11.35;;;7.65;;
74512;SDS011;62992;52.052;8.550;2023-04-09T12:54:00;13.25;;;7.40;;
74512;SDS011;62992;52.052;8.550;2023-04-09T12:56:46;11.75;;;6.80;;
74512;SDS011;62992;52.052;8.550;2023-04-09T12:59:32;9.65;;;6.60;;
74512;SDS011;62992;52.052;8.550;2023-04-09T13:02:16;12.73;;;8.18;;
74512;SDS011;62992;52.052;8.550;2023-04-09T13:05:01;12.90;;;8.10;;
74512;SDS011;62992;52.052;8.550;2023-04-09T13:07:45;12.20;;;7.45;;
74512;SDS011;62992;52.052;8.550;2023-04-09T13:10:29;14.93;;;8.40;;
74512;SDS011;62992;52.052;8.550;2023-04-09T13:13:13;13.90;;;8.43;;
74512;SDS011;62992;52.052;8.550;2023-04-09T13:15:57;13.40;;;8.57;;
74512;SDS011;62992;52.052;8.550;2023-04-09T13:18:41;13.98;;;7.97;;
74512;SDS011;62992;52.052;8.550;2023-04-09T13:21:26;14.68;;;8.02;;
74512;SDS011;62992;52.052;8.550;2023-04-09T13:24:10;14.18;;;8.48;;
74512;SDS011;62992;52.052;8.550;2023-04-09T13:26:54;15.02;;;8.27;;
74512;SDS011;62992;52.052;8.550;2023-04-09T13:29:38;15.13;;;8.38;;
74512;SDS011;62992;52.052;8.550;2023-04-09T13:32:22;14.43;;;8.43;;
74512;SDS011;62992;52.052;8.550;2023-04-09T13:35:06;16.25;;;8.38;;
74512;SDS011;62992;52.052;8.550;2023-04-09T13:37:51;14.85;;;8.00;;
74512;SDS011;62992;52.052;8.550;2023-04-09T13:40:35;12.45;;;7.57;;
74512;SDS011;62992;52.052;8.550;2023-04-09T13:43:19;12.95;;;7.25;;
74512;SDS011;62992;52.052;8.550;2023-04-09T13:46:03;13.57;;;7.68;;
74512;SDS011;62992;52.052;8.550;2023-04-09T13:48:48;14.32;;;8.15;;
74512;SDS011;62992;52.052;8.550;2023-04-09T13:51:32;12.55;;;7.78;;
74512;SDS011;62992;52.052;8.550;2023-04-09T13:54:16;13.13;;;7.38;;
74512;SDS011;62992;52.052;8.550;2023-04-09T13:57:00;12.35;;;7.57;;
74512;SDS011;62992;52.052;8.550;2023-04-09T13:59:45;11.57;;;7.65;;
74512;SDS011;62992;52.052;8.550;2023-04-09T14:02:28;14.75;;;6.82;;
74512;SDS011;62992;52.052;8.550;2023-04-09T14:05:12;10.63;;;7.00;;
74512;SDS011;62992;52.052;8.550;2023-04-09T14:07:57;12.57;;;7.38;;
74512;SDS011;62992;52.052;8.550;2023-04-09T14:10:41;11.52;;;6.40;;
74512;SDS011;62992;52.052;8.550;2023-04-09T14:13:25;10.18;;;6.18;;
74512;SDS011;62992;52.052;8.550;2023-04-09T14:16:10;10.52;;;6.47;;
74512;SDS011;62992;52.052;8.550;2023-04-09T14:18:54;12.80;;;7.50;;
74512;SDS011;62992;52.052;8.550;2023-04-09T14:21:41;12.75;;;7.22;;
74512;SDS011;62992;52.052;8.550;2023-04-09T14:24:25;10.43;;;6.55;;
74512;SDS011;62992;52.052;8.550;2023-04-09T14:27:09;10.85;;;6.57;;
74512;SDS011;62992;52.052;8.550;2023-04-09T14:29:53;11.57;;;7.38;;
74512;SDS011;62992;52.052;8.550;2023-04-09T14:32:38;11.35;;;6.68;;
74512;SDS011;62992;52.052;8.550;2023-04-09T14:35:22;11.50;;;6.07;;
74512;SDS011;62992;52.052;8.550;2023-04-09T14:38:06;10.60;;;6.90;;
74512;SDS011;62992;52.052;8.550;2023-04-09T14:40:52;11.15;;;7.05;;
74512;SDS011;62992;52.052;8.550;2023-04-09T14:43:36;11.10;;;6.72;;
74512;SDS011;62992;52.052;8.550;2023-04-09T14:46:20;10.90;;;7.13;;
74512;SDS011;62992;52.052;8.550;2023-04-09T14:49:04;12.68;;;7.72;;
74512;SDS011;62992;52.052;8.550;2023-04-09T14:51:48;13.40;;;8.82;;
74512;SDS011;62992;52.052;8.550;2023-04-09T14:54:32;12.85;;;7.82;;
74512;SDS011;62992;52.052;8.550;2023-04-09T14:57:17;13.55;;;8.15;;
74512;SDS011;62992;52.052;8.550;2023-04-09T15:00:01;14.25;;;7.40;;
74512;SDS011;62992;52.052;8.550;2023-04-09T15:02:45;13.27;;;7.90;;
74512;SDS011;62992;52.052;8.550;2023-04-09T15:05:30;13.65;;;7.97;;
74512;SDS011;62992;52.052;8.550;2023-04-09T15:08:14;12.75;;;8.02;;
74512;SDS011;62992;52.052;8.550;2023-04-09T15:10:58;13.95;;;7.80;;
74512;SDS011;62992;52.052;8.550;2023-04-09T15:13:42;12.30;;;7.65;;
74512;SDS011;62992;52.052;8.550;2023-04-09T15:16:27;13.95;;;7.68;;
74512;SDS011;62992;52.052;8.550;2023-04-09T15:19:11;18.13;;;8.45;;
74512;SDS011;62992;52.052;8.550;2023-04-09T15:21:55;15.05;;;8.32;;
74512;SDS011;62992;52.052;8.550;2023-04-09T15:24:40;14.05;;;8.27;;
74512;SDS011;62992;52.052;8.550;2023-04-09T15:27:24;16.98;;;8.85;;
74512;SDS011;62992;52.052;8.550;2023-04-09T15:30:08;15.77;;;8.52;;
74512;SDS011;62992;52.052;8.550;2023-04-09T15:32:53;14.75;;;8.68;;
74512;SDS011;62992;52.052;8.550;2023-04-09T15:35:37;15.52;;;8.88;;
74512;SDS011;62992;52.052;8.550;2023-04-09T15:38:21;14.20;;;8.52;;
74512;SDS011;62992;52.052;8.550;2023-04-09T15:43:52;14.40;;;8.02;;
74512;SDS011;62992;52.052;8.550;2023-04-09T15:46:36;14.65;;;8.13;;
74512;SDS011;62992;52.052;8.550;2023-04-09T15:49:21;14.55;;;7.93;;
74512;SDS011;62992;52.052;8.550;2023-04-09T15:52:05;15.48;;;8.63;;
74512;SDS011;62992;52.052;8.550;2023-04-09T15:54:49;14.60;;;8.43;;
74512;SDS011;62992;52.052;8.550;2023-04-09T15:57:33;13.95;;;8.88;;
74512;SDS011;62992;52.052;8.550;2023-04-09T16:00:18;13.75;;;8.07;;
74512;SDS011;62992;52.052;8.550;2023-04-09T16:03:02;12.68;;;7.97;;
74512;SDS011;62992;52.052;8.550;2023-04-09T16:05:46;15.00;;;8.85;;
74512;SDS011;62992;52.052;8.550;2023-04-09T16:08:31;14.68;;;8.48;;
74512;SDS011;62992;52.052;8.550;2023-04-09T16:11:16;15.18;;;8.48;;
74512;SDS011;62992;52.052;8.550;2023-04-09T16:14:01;17.25;;;8.43;;
74512;SDS011;62992;52.052;8.550;2023-04-09T16:16:45;14.57;;;8.43;;
74512;SDS011;62992;52.052;8.550;2023-04-09T16:19:32;14.52;;;8.13;;
74512;SDS011;62992;52.052;8.550;2023-04-09T16:22:16;14.07;;;8.35;;
74512;SDS011;62992;52.052;8.550;2023-04-09T16:25:00;14.88;;;8.60;;
74512;SDS011;62992;52.052;8.550;2023-04-09T16:27:44;15.05;;;8.27;;
74512;SDS011;62992;52.052;8.550;2023-04-09T16:30:28;14.15;;;8.40;;
74512;SDS011;62992;52.052;8.550;2023-04-09T16:33:12;12.95;;;8.43;;
74512;SDS011;62992;52.052;8.550;2023-04-09T16:35:56;13.48;;;7.82;;